Calatayud, Spain
Current Conditions -  °F | °C
As of 4:30 AM on Thursday 23 Oct 2014 (Local Time) from LEZG Reporting Station
Clear Clear  
Wind Chill: 54°   Ceiling: Unl
Heat Index: 54°   Visibility: 6mi
Dew Point: 41°   Wind: 17mph
Humidity: 62%   Direction: 300°WNW
Pressure: 30.24"   Gusts: NA
Location:  41.35°N, 1.65°W
Report Text: LEZG 230230Z 30015KT CAVOK 12/05 Q1024
Loading
Personal Weather Stations






























Interactive Weather Map
Tropical Storm Tracking
New forecast layout! Learn more

10-Day Weather Forecast

Advertisements
Track Severe Weather on mobile